createdAt,value
2019-05-16T00:00:58.745Z,1.40
2019-05-16T00:04:02.982Z,1.57
2019-05-16T00:07:08.060Z,1.30
2019-05-16T00:10:12.537Z,1.33
2019-05-16T00:13:18.617Z,1.37
2019-05-16T00:16:22.645Z,1.40
2019-05-16T00:19:28.789Z,1.20
2019-05-16T00:22:33.353Z,1.47
2019-05-16T00:25:38.619Z,1.70
2019-05-16T00:28:42.872Z,1.63
2019-05-16T00:31:48.652Z,1.43
2019-05-16T00:34:53.526Z,1.40
2019-05-16T00:37:59.012Z,1.20
2019-05-16T00:41:03.655Z,1.10
2019-05-16T00:44:08.552Z,1.20
2019-05-16T00:47:13.225Z,1.33
2019-05-16T00:50:18.349Z,1.20
2019-05-16T00:53:22.677Z,1.13
2019-05-16T00:56:28.931Z,1.40
2019-05-16T00:59:34.148Z,1.40
2019-05-16T01:02:38.411Z,1.40
2019-05-16T01:05:42.637Z,1.20
2019-05-16T01:08:48.758Z,1.20
2019-05-16T01:11:52.583Z,1.50
2019-05-16T01:14:58.418Z,1.30
2019-05-16T01:18:03.130Z,1.30
2019-05-16T01:21:07.844Z,1.20
2019-05-16T01:24:11.901Z,1.10
2019-05-16T01:27:18.368Z,1.50
2019-05-16T01:30:21.984Z,1.30
2019-05-16T01:33:28.061Z,1.40
2019-05-16T01:36:36.701Z,1.30
2019-05-16T01:39:38.293Z,1.53
2019-05-16T01:42:42.497Z,1.47
2019-05-16T01:45:48.660Z,1.70
2019-05-16T01:48:52.500Z,1.53
2019-05-16T01:51:57.907Z,1.57
2019-05-16T01:55:02.263Z,1.40
2019-05-16T01:58:08.043Z,1.50
2019-05-16T02:01:15.070Z,1.50
2019-05-16T02:04:18.449Z,1.60
2019-05-16T02:07:22.414Z,1.70
2019-05-16T02:10:28.336Z,1.63
2019-05-16T02:13:32.348Z,1.60
2019-05-16T02:16:38.439Z,1.70
2019-05-16T02:19:43.011Z,2.50
2019-05-16T02:22:48.230Z,1.50
2019-05-16T02:25:52.292Z,1.77
2019-05-16T02:28:56.291Z,1.30
2019-05-16T02:32:02.057Z,1.40
2019-05-16T02:35:06.481Z,1.40
2019-05-16T02:38:11.389Z,1.70
2019-05-16T02:41:16.491Z,1.80
2019-05-16T02:44:24.403Z,2.60
2019-05-16T02:47:26.061Z,2.00
2019-05-16T02:50:31.801Z,1.80
2019-05-16T02:53:36.216Z,1.73
2019-05-16T02:56:41.738Z,1.93
2019-05-16T02:59:46.705Z,2.70
2019-05-16T03:02:51.377Z,2.63
2019-05-16T03:05:57.233Z,2.77
2019-05-16T03:09:05.280Z,2.40
2019-05-16T03:12:10.814Z,2.80
2019-05-16T03:15:15.340Z,2.80
2019-05-16T03:18:22.614Z,2.80
2019-05-16T03:21:30.885Z,3.13
2019-05-16T03:24:34.877Z,2.87
2019-05-16T03:27:41.423Z,3.10
2019-05-16T03:30:45.498Z,3.70
2019-05-16T03:33:58.930Z,5.37
2019-05-16T03:36:55.901Z,5.10
2019-05-16T03:40:00.777Z,5.27
2019-05-16T03:43:04.964Z,5.60
2019-05-16T03:46:11.739Z,4.17
2019-05-16T03:49:14.977Z,5.00
2019-05-16T03:52:20.704Z,4.30
2019-05-16T03:55:24.927Z,4.50
2019-05-16T03:58:31.039Z,3.70
2019-05-16T04:01:34.851Z,3.60
2019-05-16T04:04:41.477Z,3.43
2019-05-16T04:07:44.683Z,3.13
2019-05-16T04:10:51.696Z,3.10
2019-05-16T04:13:54.966Z,2.90
2019-05-16T04:17:01.359Z,2.70
2019-05-16T04:20:06.811Z,2.30
2019-05-16T04:23:11.353Z,1.83
2019-05-16T04:26:15.953Z,1.80
2019-05-16T04:29:20.742Z,2.40
2019-05-16T04:32:24.963Z,2.00
2019-05-16T04:35:31.627Z,5.80
2019-05-16T04:38:41.271Z,3.60
2019-05-16T04:41:41.046Z,4.00
2019-05-16T04:44:45.083Z,4.60
2019-05-16T04:47:51.117Z,3.90
2019-05-16T04:50:54.950Z,3.40
2019-05-16T04:54:02.008Z,2.53
2019-05-16T04:57:04.982Z,2.87
2019-05-16T05:00:11.314Z,2.40
2019-05-16T05:03:15.596Z,2.43
2019-05-16T05:06:20.817Z,2.83
2019-05-16T05:09:25.460Z,3.00
2019-05-16T05:12:31.488Z,2.83
2019-05-16T05:15:36.413Z,3.10
2019-05-16T05:18:41.010Z,3.10
2019-05-16T05:21:45.628Z,2.97
2019-05-16T05:24:50.756Z,2.77
2019-05-16T05:27:54.779Z,2.90
2019-05-16T05:31:00.069Z,2.67
2019-05-16T05:34:04.060Z,3.03
2019-05-16T05:37:12.246Z,2.83
2019-05-16T05:40:16.331Z,2.97
2019-05-16T05:43:21.515Z,2.80
2019-05-16T05:46:26.297Z,4.40
2019-05-16T05:49:30.520Z,3.53
2019-05-16T05:52:34.649Z,3.87
2019-05-16T05:55:40.506Z,3.50
2019-05-16T05:58:44.468Z,3.70
2019-05-16T06:01:51.572Z,3.33
2019-05-16T06:04:54.558Z,3.63
2019-05-16T06:08:00.302Z,2.70
2019-05-16T06:11:05.329Z,2.93
2019-05-16T06:14:09.812Z,3.40
2019-05-16T06:17:14.271Z,2.90
2019-05-16T06:20:20.343Z,2.80
2019-05-16T06:23:25.066Z,3.33
2019-05-16T06:26:30.308Z,2.60
2019-05-16T06:29:34.671Z,2.13
2019-05-16T06:32:39.545Z,1.90
2019-05-16T06:35:43.968Z,1.50
2019-05-16T06:38:49.760Z,1.13
2019-05-16T06:41:54.196Z,1.30
2019-05-16T06:45:00.892Z,1.20
2019-05-16T06:48:05.401Z,1.50
2019-05-16T06:51:10.720Z,1.53
2019-05-16T06:54:15.090Z,1.67
2019-05-16T06:57:20.629Z,1.30
2019-05-16T07:00:24.739Z,1.10
2019-05-16T07:03:30.671Z,1.00
2019-05-16T07:06:51.641Z,1.20
2019-05-16T07:09:56.100Z,0.97
2019-05-16T07:12:50.171Z,1.53
2019-05-16T07:15:53.689Z,1.00
2019-05-16T07:18:58.059Z,0.90
2019-05-16T07:22:02.007Z,1.90
2019-05-16T07:25:06.821Z,1.40
2019-05-16T07:28:10.744Z,2.47
2019-05-16T07:31:18.749Z,0.90
2019-05-16T07:34:20.972Z,0.90
2019-05-16T07:37:25.160Z,0.90
2019-05-16T07:40:30.826Z,1.03
2019-05-16T07:43:34.772Z,0.83
2019-05-16T07:46:40.904Z,1.20
2019-05-16T07:49:45.134Z,1.23
2019-05-16T07:52:51.063Z,0.80
2019-05-16T07:55:56.106Z,0.90
2019-05-16T07:59:00.921Z,0.90
2019-05-16T08:02:05.034Z,0.90
2019-05-16T08:05:10.228Z,0.80
2019-05-16T08:08:14.892Z,0.90
2019-05-16T08:11:23.189Z,1.00
2019-05-16T08:14:25.037Z,1.20
2019-05-16T08:17:31.435Z,1.00
2019-05-16T08:20:35.564Z,1.20
2019-05-16T08:23:41.181Z,0.80
2019-05-16T08:26:45.744Z,0.90
2019-05-16T08:29:51.377Z,0.80
2019-05-16T08:32:55.967Z,0.90
2019-05-16T08:36:04.730Z,0.90
2019-05-16T08:39:10.867Z,0.83
2019-05-16T08:42:13.636Z,1.10
2019-05-16T08:45:21.212Z,1.00
2019-05-16T08:48:24.647Z,0.90
2019-05-16T08:51:32.821Z,0.90
2019-05-16T08:54:34.807Z,1.10
2019-05-16T08:57:41.003Z,0.83
2019-05-16T09:00:44.875Z,1.00
2019-05-16T09:03:51.684Z,1.07
2019-05-16T09:06:54.773Z,0.90
2019-05-16T09:10:00.208Z,1.00
2019-05-16T09:13:07.138Z,0.90
2019-05-16T09:16:10.839Z,1.10
2019-05-16T09:19:16.942Z,1.10
2019-05-16T09:22:20.732Z,1.00
2019-05-16T09:25:27.453Z,1.10
2019-05-16T09:28:30.960Z,1.20
2019-05-16T09:31:38.262Z,1.20
2019-05-16T09:34:40.980Z,1.30
2019-05-16T09:37:47.315Z,1.20
2019-05-16T09:40:51.696Z,1.00
2019-05-16T09:43:58.629Z,1.00
2019-05-16T09:47:01.347Z,1.10
2019-05-16T09:50:07.175Z,1.23
2019-05-16T09:53:11.438Z,1.13
2019-05-16T09:56:16.808Z,1.20
2019-05-16T09:59:21.207Z,1.10
2019-05-16T10:02:27.454Z,1.20
2019-05-16T10:05:31.185Z,1.20
2019-05-16T10:08:37.453Z,1.27
2019-05-16T10:11:42.761Z,1.40
2019-05-16T10:14:47.096Z,1.00
2019-05-16T10:17:51.369Z,1.40
2019-05-16T10:20:58.994Z,1.13
2019-05-16T10:24:01.688Z,1.00
2019-05-16T10:27:06.675Z,1.20
2019-05-16T10:30:12.341Z,1.07
2019-05-16T10:33:18.846Z,1.10
2019-05-16T10:36:22.321Z,1.33
2019-05-16T10:39:26.906Z,1.20
2019-05-16T10:42:31.444Z,1.40
2019-05-16T10:45:36.872Z,1.03
2019-05-16T10:48:40.961Z,1.40
2019-05-16T10:51:46.994Z,1.30
2019-05-16T10:54:57.550Z,1.60
2019-05-16T10:57:56.890Z,1.50
2019-05-16T11:01:22.269Z,1.50
2019-05-16T11:04:07.945Z,1.50
2019-05-16T11:07:12.097Z,1.83
2019-05-16T11:10:16.887Z,1.63
2019-05-16T11:13:20.886Z,1.53
2019-05-16T11:16:27.491Z,1.10
2019-05-16T11:19:31.043Z,1.50
2019-05-16T11:22:36.990Z,1.70
2019-05-16T11:25:41.268Z,1.17
2019-05-16T11:28:48.548Z,1.40
2019-05-16T11:31:51.598Z,1.30
2019-05-16T11:34:56.284Z,1.30
2019-05-16T11:38:00.774Z,1.30
2019-05-16T11:41:07.304Z,1.70
2019-05-16T11:44:10.726Z,1.33
2019-05-16T11:47:16.576Z,1.23
2019-05-16T11:50:21.141Z,1.30
2019-05-16T11:53:28.119Z,1.30
2019-05-16T11:56:30.692Z,1.20
2019-05-16T11:59:37.166Z,1.20
2019-05-16T12:02:42.805Z,1.10
2019-05-16T12:05:48.313Z,1.10
2019-05-16T12:08:52.781Z,1.20
2019-05-16T12:12:04.236Z,1.20
2019-05-16T12:15:02.899Z,1.00
2019-05-16T12:18:08.489Z,1.20
2019-05-16T12:21:12.980Z,1.40
2019-05-16T12:24:31.647Z,2.53
2019-05-16T12:27:23.114Z,1.40
2019-05-16T12:30:27.376Z,1.07
2019-05-16T12:33:31.668Z,1.27
2019-05-16T12:36:37.852Z,1.50
2019-05-16T12:39:41.767Z,1.70
2019-05-16T12:42:47.176Z,1.70
2019-05-16T12:45:51.300Z,1.63
2019-05-16T12:48:57.492Z,1.30
2019-05-16T12:52:00.866Z,1.13
2019-05-16T12:55:05.177Z,1.47
2019-05-16T12:58:13.288Z,2.40
2019-05-16T13:01:17.627Z,1.33
2019-05-16T13:04:20.743Z,1.60
2019-05-16T13:07:26.929Z,1.40
2019-05-16T13:10:30.724Z,1.50
2019-05-16T13:13:37.264Z,1.30
2019-05-16T13:16:40.785Z,1.37
2019-05-16T13:19:48.122Z,0.97
2019-05-16T13:22:50.871Z,1.10
2019-05-16T13:25:57.487Z,1.60
2019-05-16T13:29:00.987Z,1.60
2019-05-16T13:32:07.555Z,1.63
2019-05-16T13:35:10.900Z,1.70
2019-05-16T13:38:17.381Z,1.80
2019-05-16T13:41:20.748Z,1.80
2019-05-16T13:44:27.294Z,1.93
2019-05-16T13:47:30.859Z,1.30
2019-05-16T13:50:37.352Z,1.60
2019-05-16T13:53:41.258Z,1.90
2019-05-16T13:56:48.387Z,1.97
2019-05-16T13:59:52.309Z,9.17
2019-05-16T14:02:56.795Z,5.60
2019-05-16T14:06:01.416Z,2.10
2019-05-16T14:09:07.367Z,1.67
2019-05-16T14:12:11.604Z,1.67
2019-05-16T14:15:18.127Z,3.53
2019-05-16T14:18:22.707Z,2.00
2019-05-16T14:21:27.340Z,2.03
2019-05-16T14:24:31.655Z,2.60
2019-05-16T14:27:38.324Z,2.37
2019-05-16T14:30:41.720Z,2.03
2019-05-16T14:33:47.438Z,2.60
2019-05-16T14:36:52.119Z,2.20
2019-05-16T14:40:00.378Z,2.13
2019-05-16T14:43:01.576Z,2.80
2019-05-16T14:46:09.283Z,3.33
2019-05-16T14:49:11.291Z,3.30
2019-05-16T14:52:15.251Z,2.53
2019-05-16T14:55:19.339Z,4.60
2019-05-16T14:58:23.280Z,2.77
2019-05-16T15:01:30.163Z,2.10
2019-05-16T15:04:34.318Z,1.87
2019-05-16T15:07:38.318Z,2.10
2019-05-16T15:10:43.006Z,2.10
2019-05-16T15:13:47.244Z,3.30
2019-05-16T15:16:52.025Z,8.57
2019-05-16T15:19:57.151Z,4.00
2019-05-16T15:23:01.101Z,5.17
2019-05-16T15:26:09.000Z,14.10
2019-05-16T15:29:10.774Z,6.50
2019-05-16T15:32:17.634Z,5.00
2019-05-16T15:35:21.624Z,9.00
2019-05-16T15:38:27.201Z,4.60
2019-05-16T15:41:31.342Z,3.63
2019-05-16T15:44:36.853Z,2.30
2019-05-16T15:47:41.764Z,2.20
2019-05-16T15:50:45.996Z,2.97
2019-05-16T15:53:50.447Z,2.10
2019-05-16T15:56:54.444Z,2.73
2019-05-16T15:59:58.963Z,2.13
2019-05-16T16:03:02.986Z,2.70
2019-05-16T16:06:07.515Z,2.20
2019-05-16T16:09:11.859Z,2.90
2019-05-16T16:12:17.014Z,2.40
2019-05-16T16:15:21.406Z,2.27
2019-05-16T16:18:27.065Z,2.07
2019-05-16T16:21:31.365Z,3.10
2019-05-16T16:24:35.388Z,2.50
2019-05-16T16:27:39.681Z,2.23
2019-05-16T16:30:47.441Z,2.67
2019-05-16T16:33:50.426Z,2.33
2019-05-16T16:36:56.802Z,2.53
2019-05-16T16:40:00.593Z,2.60
2019-05-16T16:43:07.756Z,3.03
2019-05-16T16:46:13.659Z,3.47
2019-05-16T16:49:17.470Z,2.67
2019-05-16T16:52:21.703Z,3.27
2019-05-16T16:55:27.519Z,2.70
2019-05-16T16:58:31.969Z,2.90
2019-05-16T17:01:37.348Z,5.67
2019-05-16T17:04:41.803Z,4.83
2019-05-16T17:07:48.727Z,3.13
2019-05-16T17:10:52.668Z,2.70
2019-05-16T17:13:56.939Z,3.53
2019-05-16T17:17:01.273Z,4.07
2019-05-16T17:20:07.667Z,3.80
2019-05-16T17:23:12.482Z,10.27
2019-05-16T17:26:16.410Z,12.00
2019-05-16T17:29:20.614Z,9.27
2019-05-16T17:32:27.267Z,12.87
2019-05-16T17:35:31.126Z,30.50
2019-05-16T17:38:37.156Z,15.23
2019-05-16T17:41:41.084Z,7.17
2019-05-16T17:44:47.277Z,4.97
2019-05-16T17:47:51.353Z,4.13
2019-05-16T17:50:57.026Z,4.43
2019-05-16T17:54:01.644Z,4.33
2019-05-16T17:57:07.446Z,3.20
2019-05-16T18:00:16.948Z,3.77
2019-05-16T18:03:18.391Z,3.50
2019-05-16T18:06:22.316Z,3.60
2019-05-16T18:09:27.888Z,3.57
2019-05-16T18:12:32.270Z,3.30
2019-05-16T18:15:36.946Z,4.07
2019-05-16T18:18:41.158Z,4.83
2019-05-16T18:21:46.433Z,4.77
2019-05-16T18:24:51.049Z,3.77
2019-05-16T18:27:55.275Z,4.33
2019-05-16T18:30:59.367Z,5.57
2019-05-16T18:34:03.648Z,4.70
2019-05-16T18:37:07.896Z,4.77
2019-05-16T18:40:13.435Z,4.63
2019-05-16T18:43:21.469Z,6.83
2019-05-16T18:46:26.935Z,4.77
2019-05-16T18:49:31.327Z,9.23
2019-05-16T18:52:37.571Z,5.50
2019-05-16T18:55:42.943Z,4.70
2019-05-16T18:58:48.126Z,4.80
2019-05-16T19:01:53.064Z,4.70
2019-05-16T19:04:57.874Z,5.20
2019-05-16T19:08:02.208Z,5.00
2019-05-16T19:11:07.428Z,4.63
2019-05-16T19:14:12.215Z,4.17
2019-05-16T19:17:22.028Z,3.87
2019-05-16T19:20:22.741Z,4.50
2019-05-16T19:23:27.065Z,5.00
2019-05-16T19:26:31.244Z,5.97
2019-05-16T19:29:36.846Z,4.53
2019-05-16T19:32:41.187Z,4.43
2019-05-16T19:35:46.874Z,4.03
2019-05-16T19:38:51.580Z,4.30
2019-05-16T19:41:57.236Z,3.93
2019-05-16T19:45:01.804Z,4.33
2019-05-16T19:48:07.500Z,4.77
2019-05-16T19:51:11.786Z,5.20
2019-05-16T19:54:16.471Z,5.17
2019-05-16T19:57:20.279Z,4.53
2019-05-16T20:00:26.437Z,5.37
2019-05-16T20:03:30.333Z,6.27
2019-05-16T20:06:36.938Z,5.43
2019-05-16T20:09:41.335Z,5.27
2019-05-16T20:12:46.271Z,5.53
2019-05-16T20:15:50.937Z,10.10
2019-05-16T20:18:56.189Z,5.10
2019-05-16T20:22:00.176Z,5.00
2019-05-16T20:25:04.340Z,5.63
2019-05-16T20:28:09.132Z,5.70
2019-05-16T20:31:13.436Z,7.70
2019-05-16T20:34:17.864Z,9.70
2019-05-16T20:37:23.047Z,5.87
2019-05-16T20:40:26.963Z,6.20
2019-05-16T20:43:30.940Z,5.37
2019-05-16T20:46:35.212Z,6.73
2019-05-16T20:49:39.141Z,11.50
2019-05-16T20:52:43.395Z,5.53
2019-05-16T20:55:49.666Z,4.87
2019-05-16T20:58:54.321Z,5.53
2019-05-16T21:01:58.572Z,6.03
2019-05-16T21:05:02.829Z,5.57
2019-05-16T21:08:06.908Z,6.00
2019-05-16T21:11:10.931Z,6.27
2019-05-16T21:14:16.422Z,5.43
2019-05-16T21:17:20.444Z,5.57
2019-05-16T21:20:27.021Z,5.53
2019-05-16T21:23:30.554Z,6.17
2019-05-16T21:26:36.736Z,6.37
2019-05-16T21:29:40.887Z,6.23
2019-05-16T21:32:47.106Z,6.37
2019-05-16T21:35:50.866Z,7.00
2019-05-16T21:38:55.267Z,6.67
2019-05-16T21:41:59.540Z,6.90
2019-05-16T21:45:03.679Z,7.33
2019-05-16T21:48:07.643Z,8.27
2019-05-16T21:51:12.176Z,8.90
2019-05-16T21:54:17.025Z,8.00
2019-05-16T21:57:21.521Z,9.00
2019-05-16T22:00:31.510Z,7.77
2019-05-16T22:03:36.739Z,8.57
2019-05-16T22:06:41.308Z,8.10
2019-05-16T22:09:46.569Z,8.27
2019-05-16T22:12:51.496Z,7.77
2019-05-16T22:15:56.882Z,8.87
2019-05-16T22:19:01.092Z,8.60
2019-05-16T22:22:07.412Z,8.97
2019-05-16T22:25:12.607Z,8.67
2019-05-16T22:28:17.406Z,8.83
2019-05-16T22:31:21.436Z,9.00
2019-05-16T22:34:26.482Z,9.13
2019-05-16T22:37:30.458Z,8.70
2019-05-16T22:40:37.169Z,8.77
2019-05-16T22:43:40.319Z,9.23
2019-05-16T22:46:46.492Z,8.60
2019-05-16T22:49:51.200Z,9.20
2019-05-16T22:52:56.977Z,8.73
2019-05-16T22:56:01.837Z,8.43
2019-05-16T22:59:07.188Z,8.47
2019-05-16T23:02:12.561Z,8.87
2019-05-16T23:05:16.918Z,8.77
2019-05-16T23:08:21.660Z,9.30
2019-05-16T23:11:27.017Z,7.97
2019-05-16T23:14:31.511Z,8.27
2019-05-16T23:17:37.492Z,9.20
2019-05-16T23:20:42.012Z,9.07
2019-05-16T23:23:46.514Z,9.37
2019-05-16T23:26:50.591Z,9.07
2019-05-16T23:29:56.761Z,8.57
2019-05-16T23:33:00.541Z,9.00
2019-05-16T23:36:07.202Z,9.60
2019-05-16T23:39:10.572Z,8.87
2019-05-16T23:42:14.822Z,8.67
2019-05-16T23:45:18.802Z,8.50
2019-05-16T23:48:23.279Z,8.57
2019-05-16T23:51:27.716Z,10.60
2019-05-16T23:54:32.308Z,7.77
2019-05-16T23:57:37.344Z,9.50
